Time;durP1;ratioP1;P1;durP2;ratioP2;P2;SDS_P1;SDS_P2;PMS_P1;PMS_P2;Temp;Humidity;BMP_temperature;BMP_pressure;BME280_temperature;BME280_humidity;BME280_pressure;Samples;Min_cycle;Max_cycle;Signal;HPM_P1;HPM_P2
2021/05/11 00:00:05;;;;;;;6.93;5.25;;;16.90;72.90;;;;;;2476851;52;21501;-69
2021/05/11 00:02:32;;;;;;;6.25;4.37;;;16.80;72.70;;;;;;2359348;53;20946;-67
2021/05/11 00:04:58;;;;;;;5.72;4.50;;;16.90;72.90;;;;;;2358806;53;20930;-68
2021/05/11 00:07:26;;;;;;;6.10;4.85;;;16.80;72.80;;;;;;2360184;53;21081;-68
2021/05/11 00:09:53;;;;;;;7.15;5.37;;;16.90;72.90;;;;;;2364156;53;20922;-67
2021/05/11 00:12:19;;;;;;;6.57;4.97;;;16.80;72.80;;;;;;2364052;53;21937;-68
2021/05/11 00:14:45;;;;;;;6.97;5.03;;;16.90;72.90;;;;;;2363436;53;21643;-69
2021/05/11 00:17:12;;;;;;;6.55;4.97;;;16.80;72.80;;;;;;2346802;53;20999;-69
2021/05/11 00:19:39;;;;;;;6.45;4.93;;;16.80;72.80;;;;;;2366335;53;20930;-69
2021/05/11 00:22:05;;;;;;;6.50;4.80;;;16.80;72.80;;;;;;2366603;53;21010;-68
2021/05/11 00:24:31;;;;;;;6.18;4.70;;;16.80;72.80;;;;;;2364096;53;20950;-69
2021/05/11 00:26:57;;;;;;;6.82;4.97;;;16.80;72.90;;;;;;2367871;53;21375;-69
2021/05/11 00:29:23;;;;;;;6.70;4.32;;;16.80;73.00;;;;;;2368666;53;21779;-69
2021/05/11 00:31:50;;;;;;;5.55;4.40;;;16.80;73.10;;;;;;2621101;52;20950;-68
2021/05/11 00:34:16;;;;;;;6.00;4.32;;;16.80;73.10;;;;;;2342973;53;21362;-69
2021/05/11 00:36:42;;;;;;;7.22;5.43;;;16.90;73.20;;;;;;2355379;53;20910;-69
2021/05/11 00:39:08;;;;;;;7.03;5.28;;;16.80;73.10;;;;;;2350502;53;21023;-68
2021/05/11 00:41:35;;;;;;;5.95;4.50;;;16.90;73.20;;;;;;2367551;53;21885;-68
2021/05/11 00:44:23;;;;;;;5.95;4.25;;;16.80;73.10;;;;;;2369739;53;21728;-68
2021/05/11 00:47:03;;;;;;;6.07;4.55;;;16.90;72.80;;;;;;2575179;52;20989;-69
2021/05/11 00:49:40;;;;;;;6.30;4.20;;;16.90;73.00;;;;;;2365864;53;20970;-69
2021/05/11 00:52:06;;;;;;;5.93;4.32;;;16.90;72.80;;;;;;2369946;53;20938;-68
2021/05/11 00:54:33;;;;;;;5.97;4.53;;;16.90;73.00;;;;;;2392048;52;20932;-68
2021/05/11 00:56:59;;;;;;;6.37;5.00;;;16.90;73.00;;;;;;2395193;53;20914;-69
2021/05/11 00:59:26;;;;;;;6.62;4.57;;;16.90;73.00;;;;;;2362679;53;21033;-69
2021/05/11 01:01:53;;;;;;;6.15;4.28;;;16.80;72.80;;;;;;2360718;53;20946;-70
2021/05/11 01:04:20;;;;;;;8.57;5.15;;;16.80;72.80;;;;;;2591684;52;20933;-69
2021/05/11 01:06:46;;;;;;;6.75;5.25;;;16.90;72.90;;;;;;2344971;53;21031;-69
2021/05/11 01:09:13;;;;;;;7.03;5.18;;;16.80;72.70;;;;;;2355508;53;20946;-68
2021/05/11 01:11:40;;;;;;;6.95;4.93;;;16.80;72.70;;;;;;2347798;53;20927;-69
2021/05/11 01:14:06;;;;;;;6.55;4.65;;;16.80;72.70;;;;;;2343304;53;21001;-68
2021/05/11 01:16:36;;;;;;;6.57;4.62;;;16.80;72.70;;;;;;2339201;53;21018;-67
2021/05/11 01:19:15;;;;;;;6.62;4.65;;;16.80;72.60;;;;;;2363164;53;22246;-68
2021/05/11 02:23:11;;;;;;;3.60;1.75;;;16.60;72.90;;;;;;2356046;53;20968;-68
2021/05/11 02:25:37;;;;;;;3.55;1.90;;;16.60;73.00;;;;;;2575345;52;21487;-69
2021/05/11 02:28:03;;;;;;;4.95;2.03;;;16.60;73.10;;;;;;2360056;53;20942;-69
2021/05/11 02:30:30;;;;;;;4.53;2.22;;;16.60;73.10;;;;;;2365269;53;20969;-69
2021/05/11 02:32:57;;;;;;;3.70;2.03;;;16.60;73.20;;;;;;2358113;53;20975;-68
2021/05/11 02:35:23;;;;;;;4.28;2.30;;;16.60;73.20;;;;;;2350097;53;20966;-70
2021/05/11 02:37:49;;;;;;;3.72;2.00;;;16.60;73.10;;;;;;2362643;53;20950;-70
2021/05/11 02:40:18;;;;;;;4.00;2.30;;;16.60;73.00;;;;;;2339513;53;21002;-67
2021/05/11 02:42:49;;;;;;;4.35;2.08;;;16.60;73.00;;;;;;2358362;53;20994;-68
2021/05/11 02:45:16;;;;;;;3.78;2.33;;;16.60;73.00;;;;;;2607865;52;20949;-70
2021/05/11 02:48:00;;;;;;;3.70;2.20;;;16.60;73.00;;;;;;2609574;52;20946;-70
2021/05/11 02:50:28;;;;;;;3.75;2.15;;;16.60;72.60;;;;;;2357511;53;21034;-70
2021/05/11 02:52:54;;;;;;;3.30;1.87;;;16.60;72.90;;;;;;2357313;53;21390;-69
2021/05/11 02:55:20;;;;;;;4.20;2.20;;;16.60;72.90;;;;;;2356922;53;20930;-69
2021/05/11 02:57:47;;;;;;;3.33;1.87;;;16.60;72.80;;;;;;2360991;53;21017;-68
2021/05/11 03:00:14;;;;;;;3.10;1.60;;;16.60;72.80;;;;;;2360105;53;20965;-68
2021/05/11 03:02:41;;;;;;;3.40;1.77;;;16.60;72.70;;;;;;2359522;53;21445;-69
2021/05/11 03:05:09;;;;;;;3.30;1.70;;;16.60;72.70;;;;;;2595842;52;20967;-70
2021/05/11 03:07:35;;;;;;;3.67;1.90;;;16.60;72.70;;;;;;2344407;53;20942;-67
2021/05/11 03:10:02;;;;;;;6.35;2.03;;;16.50;72.70;;;;;;2356397;53;20998;-70
2021/05/11 03:12:28;;;;;;;3.35;2.05;;;16.50;72.70;;;;;;2354655;53;20958;-69
2021/05/11 03:14:54;;;;;;;4.82;2.55;;;16.60;72.80;;;;;;2350130;53;21025;-70
2021/05/11 03:17:21;;;;;;;4.12;2.40;;;16.50;72.80;;;;;;2336498;53;20951;-70
2021/05/11 03:19:47;;;;;;;4.20;2.78;;;16.50;72.70;;;;;;2607963;52;20953;-71
2021/05/11 03:22:13;;;;;;;3.85;2.22;;;16.50;72.60;;;;;;2361551;53;20923;-67
2021/05/11 03:24:44;;;;;;;4.57;2.75;;;16.50;72.60;;;;;;2345397;53;20935;-69
2021/05/11 03:27:21;;;;;;;4.53;2.75;;;16.50;72.70;;;;;;2367474;53;21307;-68
2021/05/11 03:29:48;;;;;;;3.90;2.35;;;16.50;72.80;;;;;;2346088;53;20934;-69
2021/05/11 03:32:14;;;;;;;4.45;2.85;;;16.50;72.90;;;;;;2333076;53;22594;-69
2021/05/11 03:34:41;;;;;;;4.72;2.62;;;16.40;72.80;;;;;;2379681;53;20902;-69
2021/05/11 03:37:07;;;;;;;4.95;3.05;;;16.40;72.90;;;;;;2329393;53;20981;-68
2021/05/11 03:39:40;;;;;;;5.72;3.00;;;16.40;72.90;;;;;;2362887;53;20933;-68
2021/05/11 03:42:12;;;;;;;4.55;2.95;;;16.40;72.90;;;;;;2317584;53;20939;-67
2021/05/11 03:44:40;;;;;;;4.87;2.92;;;16.40;73.00;;;;;;2337114;54;20982;-68
2021/05/11 03:47:06;;;;;;;4.70;2.85;;;16.50;73.20;;;;;;2336941;53;21015;-68
2021/05/11 03:49:36;;;;;;;4.43;2.67;;;16.40;73.10;;;;;;2334974;53;20933;-69
2021/05/11 03:52:02;;;;;;;4.20;2.47;;;16.50;73.30;;;;;;2335968;53;20996;-69
2021/05/11 03:54:29;;;;;;;4.37;2.58;;;16.50;73.40;;;;;;2330604;53;22009;-69
2021/05/11 03:56:55;;;;;;;4.40;2.70;;;16.50;73.30;;;;;;2331278;53;21521;-69
2021/05/11 03:59:22;;;;;;;4.43;2.55;;;16.50;73.30;;;;;;2442775;52;21529;-68
2021/05/11 04:01:48;;;;;;;4.80;2.78;;;16.50;73.30;;;;;;2365788;53;21002;-69
2021/05/11 04:04:19;;;;;;;4.80;2.78;;;16.50;73.20;;;;;;2336193;53;20978;-69
2021/05/11 04:06:46;;;;;;;3.97;2.47;;;16.50;73.30;;;;;;2358648;53;20922;-69
2021/05/11 04:09:24;;;;;;;5.28;2.53;;;16.50;73.40;;;;;;2358007;53;20998;-69
2021/05/11 04:12:12;;;;;;;5.32;2.65;;;16.50;73.40;;;;;;2358770;53;21785;-68
2021/05/11 04:19:42;;;;;;;4.12;1.73;;;16.50;73.30;;;;;;2362599;53;21026;-69
2021/05/11 04:22:08;;;;;;;3.17;1.50;;;16.60;73.30;;;;;;2357156;53;21014;-68
2021/05/11 04:24:34;;;;;;;2.97;1.40;;;16.50;73.20;;;;;;2359404;54;21377;-68
2021/05/11 04:27:00;;;;;;;3.62;1.60;;;16.50;73.20;;;;;;2359161;53;20994;-70
2021/05/11 04:29:27;;;;;;;4.68;1.95;;;16.60;73.30;;;;;;2476552;52;20933;-68
2021/05/11 04:31:54;;;;;;;3.55;1.58;;;16.60;73.30;;;;;;2336644;53;20938;-69
2021/05/11 04:34:21;;;;;;;3.72;1.95;;;16.50;73.10;;;;;;2351214;53;21025;-69
2021/05/11 04:36:47;;;;;;;4.95;2.03;;;16.50;73.20;;;;;;2353569;53;21727;-68
2021/05/11 04:39:14;;;;;;;3.78;2.10;;;16.50;73.10;;;;;;2354960;53;20918;-68
2021/05/11 04:41:41;;;;;;;3.53;2.15;;;16.60;73.10;;;;;;2330431;53;20967;-68
2021/05/11 04:44:07;;;;;;;3.22;1.90;;;16.50;73.00;;;;;;2341963;53;20992;-68
2021/05/11 04:46:46;;;;;;;4.20;2.30;;;16.50;73.20;;;;;;2349232;53;20983;-67
2021/05/11 04:49:12;;;;;;;4.93;2.22;;;16.50;73.20;;;;;;2354116;53;21083;-68
2021/05/11 04:51:38;;;;;;;3.67;2.10;;;16.50;73.20;;;;;;2612510;52;21688;-69
2021/05/11 04:54:07;;;;;;;4.80;1.98;;;16.50;73.30;;;;;;2367513;53;20942;-69
2021/05/11 04:56:34;;;;;;;3.60;2.05;;;16.60;73.40;;;;;;2336119;53;21580;-69
2021/05/11 04:59:01;;;;;;;4.62;2.30;;;16.60;73.40;;;;;;2365348;53;20945;-67
2021/05/11 05:01:27;;;;;;;4.40;2.35;;;16.60;73.40;;;;;;2370584;53;20961;-70
2021/05/11 05:03:56;;;;;;;5.75;3.62;;;16.60;73.40;;;;;;2371178;53;20958;-70
2021/05/11 05:06:23;;;;;;;4.87;3.00;;;16.60;73.50;;;;;;2371391;53;20981;-69
2021/05/11 05:08:49;;;;;;;4.65;3.03;;;16.60;73.60;;;;;;2371680;53;20951;-69
2021/05/11 05:11:17;;;;;;;5.22;3.12;;;16.60;73.70;;;;;;2371522;53;20973;-68
2021/05/11 05:13:44;;;;;;;5.95;2.87;;;16.60;73.70;;;;;;2592160;52;20930;-69
2021/05/11 05:16:10;;;;;;;4.40;2.72;;;16.60;73.70;;;;;;2367529;53;20927;-70
2021/05/11 05:18:36;;;;;;;4.90;3.08;;;16.70;73.80;;;;;;2381794;52;21005;-70
2021/05/11 05:21:08;;;;;;;4.75;3.08;;;16.70;73.90;;;;;;2364818;53;20991;-68
2021/05/11 05:23:43;;;;;;;5.20;2.85;;;16.70;73.90;;;;;;2350243;53;21071;-67
2021/05/11 05:26:11;;;;;;;4.12;2.42;;;16.70;73.70;;;;;;2356433;53;20878;-69
2021/05/11 05:28:41;;;;;;;5.12;3.30;;;16.70;73.80;;;;;;2370142;53;20898;-69
2021/05/11 05:31:08;;;;;;;5.18;2.70;;;16.70;73.80;;;;;;2359263;53;20927;-68
2021/05/11 05:33:36;;;;;;;5.45;3.15;;;16.80;73.80;;;;;;2362956;53;20969;-69
2021/05/11 05:36:03;;;;;;;5.00;3.00;;;16.80;73.80;;;;;;2367031;54;20998;-68
2021/05/11 05:38:30;;;;;;;5.47;3.03;;;16.80;73.80;;;;;;2370530;53;21092;-69
2021/05/11 05:41:09;;;;;;;5.60;3.20;;;16.80;73.60;;;;;;2361689;53;20953;-70
2021/05/11 05:43:37;;;;;;;4.82;2.87;;;16.80;73.50;;;;;;2346533;53;20947;-68
2021/05/11 05:46:03;;;;;;;4.85;2.90;;;16.80;73.40;;;;;;2368766;53;21005;-68
2021/05/11 05:48:31;;;;;;;4.93;2.97;;;16.80;73.50;;;;;;2371118;53;20966;-70
2021/05/11 05:51:02;;;;;;;6.03;3.45;;;16.80;74.20;;;;;;2349582;53;21700;-68
2021/05/11 05:53:39;;;;;;;3.85;2.15;;;16.80;74.10;;;;;;2344277;54;21427;-70
2021/05/11 05:56:08;;;;;;;5.53;3.03;;;16.80;73.20;;;;;;2368833;53;21756;-68
2021/05/11 05:58:34;;;;;;;5.10;3.17;;;16.80;73.50;;;;;;2343089;53;22197;-68
2021/05/11 06:01:06;;;;;;;5.60;3.28;;;16.80;73.50;;;;;;2349914;53;20922;-70
2021/05/11 06:04:07;;;;;;;;;;;16.80;73.50;;;;;;2349498;53;21014;-69
2021/05/11 06:06:33;;;;;;;4.43;2.72;;;16.90;72.90;;;;;;2333981;53;20158;-70
2021/05/11 06:09:00;;;;;;;5.45;3.15;;;16.80;73.30;;;;;;2326997;53;20938;-69
2021/05/11 06:11:37;;;;;;;6.37;3.55;;;16.90;73.40;;;;;;2324600;53;21639;-69
2021/05/11 06:14:18;;;;;;;5.00;3.22;;;16.90;73.40;;;;;;2564207;52;20941;-69
2021/05/11 06:19:36;;;;;;;14.25;3.17;;;16.80;73.40;;;;;;2335277;53;21018;-68
2021/05/11 06:22:02;;;;;;;5.47;3.55;;;16.80;73.50;;;;;;2342093;53;21073;-69
2021/05/11 06:24:29;;;;;;;4.93;3.20;;;16.80;73.50;;;;;;2345981;53;20970;-70
2021/05/11 06:26:55;;;;;;;6.55;3.65;;;16.80;73.50;;;;;;2575612;52;20919;-69
2021/05/11 06:29:24;;;;;;;7.15;3.53;;;16.80;73.60;;;;;;2613538;52;21422;-70
2021/05/11 06:31:50;;;;;;;6.32;4.05;;;16.80;73.70;;;;;;2366785;53;20919;-68
2021/05/11 06:34:16;;;;;;;6.82;4.18;;;16.80;73.60;;;;;;2365628;53;20938;-69
2021/05/11 06:36:43;;;;;;;7.00;4.05;;;16.90;73.70;;;;;;2343255;53;21439;-71
2021/05/11 06:39:11;;;;;;;6.22;3.72;;;16.90;73.70;;;;;;2330597;53;20983;-69
2021/05/11 06:41:40;;;;;;;6.40;3.78;;;16.90;73.60;;;;;;2570665;53;20991;-68
2021/05/11 06:44:10;;;;;;;6.18;3.67;;;16.90;73.50;;;;;;2343531;53;20965;-70
2021/05/11 06:53:14;;;;;;;6.12;2.92;;;16.80;73.30;;;;;;2347849;53;20985;-69
2021/05/11 06:55:45;;;;;;;5.90;3.33;;;16.80;73.20;;;;;;2312073;54;20925;-67
2021/05/11 06:58:12;;;;;;;5.62;3.42;;;16.80;73.20;;;;;;2365835;52;21057;-67
2021/05/11 07:00:42;;;;;;;5.68;3.53;;;16.80;73.20;;;;;;2335701;53;20959;-67
2021/05/11 07:03:08;;;;;;;5.30;3.40;;;16.80;73.20;;;;;;2336074;53;20930;-70
2021/05/11 07:05:36;;;;;;;6.32;3.75;;;16.80;73.40;;;;;;2343533;53;21672;-69
2021/05/11 07:08:28;;;;;;;6.62;4.18;;;16.70;73.30;;;;;;2448236;52;21043;-68
2021/05/11 07:10:57;;;;;;;6.53;4.03;;;16.80;73.50;;;;;;2585626;53;21698;-69
2021/05/11 07:13:24;;;;;;;6.28;4.03;;;16.70;73.30;;;;;;2622154;52;20936;-68
2021/05/11 07:15:50;;;;;;;6.25;4.05;;;16.70;73.40;;;;;;2369997;53;20934;-68
2021/05/11 07:18:55;;;;;;;5.72;3.47;;;16.70;73.60;;;;;;2623815;52;20954;-69
2021/05/11 07:21:21;;;;;;;6.53;4.18;;;16.70;73.40;;;;;;2623719;52;20899;-69
2021/05/11 07:23:48;;;;;;;6.25;3.83;;;16.70;73.70;;;;;;2538363;52;20974;-71
2021/05/11 07:29:26;;;;;;;6.62;4.18;;;16.70;73.70;;;;;;2623558;52;20934;-69
2021/05/11 07:31:52;;;;;;;6.60;3.92;;;16.70;73.60;;;;;;2352908;53;20939;-69
2021/05/11 07:34:20;;;;;;;6.78;4.20;;;16.70;73.60;;;;;;2368623;53;20951;-69
2021/05/11 07:36:46;;;;;;;5.35;3.80;;;16.70;73.70;;;;;;2370079;53;21021;-69
2021/05/11 07:39:13;;;;;;;5.37;3.60;;;16.70;73.70;;;;;;2403825;52;20930;-69
2021/05/11 07:41:40;;;;;;;6.25;3.65;;;16.70;73.90;;;;;;2471031;52;21436;-69
2021/05/11 07:44:09;;;;;;;6.90;4.20;;;16.80;74.00;;;;;;2352956;54;21024;-69
2021/05/11 07:47:04;;;;;;;6.32;4.22;;;16.80;74.00;;;;;;2346513;53;20946;-68
2021/05/11 08:04:25;;;;;;;5.50;3.55;;;16.80;74.20;;;;;;2347032;53;20954;-69
2021/05/11 08:17:10;;;;;;;3.75;2.33;;;16.90;74.30;;;;;;2342586;53;20996;-70
2021/05/11 08:20:36;;;;;;;4.78;3.00;;;17.00;74.00;;;;;;2343282;53;20972;-70
2021/05/11 08:29:23;;;;;;;4.97;3.33;;;17.00;74.00;;;;;;2347580;53;21081;-69
2021/05/11 08:31:49;;;;;;;5.30;3.42;;;17.00;74.10;;;;;;2362384;53;20981;-69
2021/05/11 08:34:16;;;;;;;5.32;3.50;;;16.90;74.40;;;;;;2623938;52;20923;-69
2021/05/11 08:36:45;;;;;;;5.50;3.78;;;17.00;74.50;;;;;;2359129;53;20941;-71
2021/05/11 08:39:11;;;;;;;4.75;3.17;;;17.00;74.40;;;;;;2345907;53;21429;-71
2021/05/11 08:41:38;;;;;;;5.50;3.75;;;17.00;74.60;;;;;;2370772;53;21513;-70
2021/05/11 08:44:07;;;;;;;5.00;3.45;;;17.00;74.70;;;;;;2624134;52;21687;-68
2021/05/11 08:46:36;;;;;;;5.60;4.00;;;17.00;74.70;;;;;;2436630;53;21506;-69
2021/05/11 08:49:05;;;;;;;4.95;3.75;;;17.10;74.80;;;;;;2339008;54;21058;-68
2021/05/11 08:51:37;;;;;;;6.37;4.28;;;17.10;74.90;;;;;;2602134;52;21014;-69
2021/05/11 09:06:51;;;;;;;5.57;3.92;;;17.50;76.40;;;;;;2371221;53;20958;-71
2021/05/11 09:09:39;;;;;;;6.05;4.05;;;17.60;76.00;;;;;;2371103;53;20913;-70
2021/05/11 09:15:35;;;;;;;5.47;3.87;;;17.80;75.70;;;;;;2572706;52;20955;-69
2021/05/11 09:31:16;;;;;;;5.68;4.12;;;18.00;75.00;;;;;;2611145;52;20956;-68
2021/05/11 09:33:57;;;;;;;5.82;4.05;;;18.10;74.90;;;;;;2348168;54;20998;-71
2021/05/11 10:49:48;;;;;;;3.15;1.85;;;18.00;72.10;;;;;;2356121;53;20924;-68
2021/05/11 10:52:43;;;;;;;3.20;2.00;;;17.90;72.30;;;;;;2372109;53;20998;-69
2021/05/11 10:55:15;;;;;;;3.92;2.30;;;17.80;72.20;;;;;;2347124;53;21449;-67
2021/05/11 10:58:08;;;;;;;;;;;;;;;;;;;;;
2021/05/11 11:00:56;;;;;;;3.22;2.10;;;17.80;72.60;;;;;;2371251;53;20966;-69
2021/05/11 11:03:25;;;;;;;3.62;2.28;;;17.70;72.40;;;;;;2533210;52;21034;-69
2021/05/11 11:05:57;;;;;;;4.50;2.67;;;17.70;72.80;;;;;;2367189;53;21848;-69
2021/05/11 11:08:39;;;;;;;4.50;2.40;;;17.70;72.60;;;;;;2352215;53;21018;-67
2021/05/11 11:11:20;;;;;;;3.53;2.40;;;17.60;72.50;;;;;;2603127;52;21032;-68
2021/05/11 11:13:52;;;;;;;3.83;2.35;;;17.60;72.80;;;;;;2341534;54;20942;-67
2021/05/11 11:16:21;;;;;;;3.42;2.05;;;17.60;72.80;;;;;;2369669;53;21015;-68
2021/05/11 11:18:48;;;;;;;3.25;1.95;;;17.50;72.90;;;;;;2350374;53;20994;-68
2021/05/11 11:24:07;;;;;;;2.80;1.60;;;17.50;73.20;;;;;;2365075;53;20956;-68
2021/05/11 11:26:44;;;;;;;3.35;1.67;;;17.50;73.40;;;;;;2354169;53;20962;-68
2021/05/11 11:29:13;;;;;;;2.20;1.20;;;17.50;73.60;;;;;;2371147;53;20954;-70
2021/05/11 11:31:40;;;;;;;2.83;1.42;;;17.50;73.80;;;;;;2371082;53;20958;-67
2021/05/11 11:35:59;;;;;;;2.67;1.33;;;17.50;74.00;;;;;;2371369;53;21060;-70
2021/05/11 11:38:26;;;;;;;3.55;1.40;;;17.60;73.30;;;;;;2371198;53;20999;-68
2021/05/11 11:40:57;;;;;;;2.62;1.50;;;17.60;73.90;;;;;;2370382;53;21466;-67
2021/05/11 11:43:29;;;;;;;3.17;1.60;;;17.60;73.80;;;;;;2371996;53;20934;-66
2021/05/11 11:45:55;;;;;;;2.50;1.30;;;17.60;74.00;;;;;;2465557;52;21023;-66
2021/05/11 11:48:24;;;;;;;2.85;1.60;;;17.60;74.10;;;;;;2357837;53;20970;-69
2021/05/11 11:50:57;;;;;;;2.30;1.20;;;17.70;74.40;;;;;;2347381;53;20998;-68
2021/05/11 11:53:28;;;;;;;2.37;1.17;;;17.70;74.40;;;;;;2372482;53;21051;-68
2021/05/11 11:56:25;;;;;;;3.37;1.50;;;17.70;74.50;;;;;;2370083;53;20946;-67
2021/05/11 11:59:03;;;;;;;2.30;1.17;;;17.80;74.70;;;;;;2338477;54;20949;-70
2021/05/11 12:01:29;;;;;;;1.87;0.98;;;17.80;74.20;;;;;;2403027;53;20927;-67
2021/05/11 12:03:55;;;;;;;1.87;0.93;;;17.90;74.60;;;;;;2370246;53;21002;-69
2021/05/11 12:06:26;;;;;;;1.98;0.93;;;17.90;74.60;;;;;;2371521;53;21006;-67
2021/05/11 12:08:53;;;;;;;2.83;1.12;;;17.90;74.40;;;;;;2346641;54;21006;-68
2021/05/11 12:11:20;;;;;;;1.92;0.80;;;18.00;74.50;;;;;;2494084;53;21001;-68
2021/05/11 12:13:49;;;;;;;2.47;1.00;;;18.10;74.30;;;;;;2356676;53;21685;-69
2021/05/11 12:16:21;;;;;;;2.60;1.03;;;18.00;74.10;;;;;;2381171;53;20942;-68
2021/05/11 12:19:09;;;;;;;2.22;1.00;;;18.10;74.20;;;;;;2370893;53;21627;-70
2021/05/11 12:22:21;;;;;;;1.55;0.80;;;18.10;73.60;;;;;;2372143;53;20934;-70
2021/05/11 12:24:52;;;;;;;2.50;0.80;;;18.20;73.40;;;;;;2357013;53;20954;-70
2021/05/11 12:27:22;;;;;;;1.85;0.90;;;18.20;74.00;;;;;;2370211;53;20967;-68
2021/05/11 12:30:02;;;;;;;3.58;1.30;;;18.20;73.80;;;;;;2340438;53;20937;-70
2021/05/11 12:32:29;;;;;;;2.45;0.90;;;18.20;72.90;;;;;;2348591;53;21513;-68
2021/05/11 12:35:56;;;;;;;2.12;1.10;;;18.20;73.50;;;;;;2358047;53;20914;-69
2021/05/11 12:38:26;;;;;;;1.65;0.80;;;18.30;72.90;;;;;;2343464;53;21432;-67
2021/05/11 12:41:15;;;;;;;1.90;0.90;;;18.30;73.50;;;;;;2323721;53;20996;-70
2021/05/11 12:43:48;;;;;;;1.95;0.90;;;18.20;73.40;;;;;;2589552;53;20972;-69
2021/05/11 12:46:15;;;;;;;;;;;18.30;73.30;;;;;;2344318;53;20985;-70
2021/05/11 12:48:58;;;;;;;2.12;0.90;;;18.30;72.70;;;;;;2326893;53;20139;-71
2021/05/11 12:51:44;;;;;;;2.47;1.10;;;18.30;73.10;;;;;;2573906;53;21472;-69
2021/05/11 12:54:32;;;;;;;2.58;1.40;;;18.30;73.10;;;;;;2445540;52;21868;-67
2021/05/11 12:57:10;;;;;;;4.47;1.77;;;18.30;72.90;;;;;;2374955;53;20998;-68
2021/05/11 13:00:08;;;;;;;3.03;1.42;;;18.20;73.10;;;;;;2359791;53;20987;-68
2021/05/11 13:02:53;;;;;;;2.62;1.37;;;18.30;72.50;;;;;;2365723;53;20942;-67
2021/05/11 13:22:15;;;;;;;2.55;1.10;;;18.10;72.40;;;;;;2343152;53;20945;-70
2021/05/11 13:29:30;;;;;;;2.60;1.40;;;18.00;72.40;;;;;;2319148;54;20977;-67
2021/05/11 13:32:00;;;;;;;2.78;1.40;;;18.00;72.60;;;;;;2320613;54;20938;-70
2021/05/11 13:34:27;;;;;;;2.67;1.37;;;17.90;72.60;;;;;;2345908;54;20987;-71
2021/05/11 13:36:53;;;;;;;2.42;1.23;;;17.80;72.50;;;;;;2323733;54;20981;-68
2021/05/11 13:39:19;;;;;;;3.42;1.27;;;17.80;72.80;;;;;;2342399;53;20961;-69
2021/05/11 13:41:46;;;;;;;2.40;1.20;;;17.80;73.10;;;;;;2336254;54;20960;-70
2021/05/11 13:44:23;;;;;;;3.05;1.48;;;17.70;73.20;;;;;;2332206;54;20927;-69
2021/05/11 13:46:49;;;;;;;3.03;1.48;;;17.70;73.10;;;;;;2347017;54;20903;-70
2021/05/11 13:49:18;;;;;;;3.33;1.73;;;17.70;73.10;;;;;;2346266;53;21004;-71
2021/05/11 13:51:44;;;;;;;3.05;1.75;;;17.70;73.10;;;;;;2314817;54;21070;-70
2021/05/11 13:54:14;;;;;;;2.90;1.65;;;17.60;73.50;;;;;;2337371;54;21024;-67
2021/05/11 14:03:46;;;;;;;1.12;0.45;;;17.60;73.60;;;;;;2340413;54;21071;-70
2021/05/11 14:06:13;;;;;;;1.37;0.60;;;17.60;73.50;;;;;;2318268;54;20987;-71
2021/05/11 14:08:39;;;;;;;2.05;0.60;;;17.60;73.50;;;;;;2330820;54;20967;-70
2021/05/11 14:11:08;;;;;;;1.02;0.47;;;17.60;73.30;;;;;;2336046;54;21086;-69
2021/05/11 14:13:34;;;;;;;1.77;0.60;;;17.60;73.30;;;;;;2344007;53;20960;-69
2021/05/11 14:16:01;;;;;;;2.12;0.82;;;17.50;73.30;;;;;;2352178;53;20987;-68
2021/05/11 14:18:27;;;;;;;2.20;0.70;;;17.50;73.20;;;;;;2343553;54;20919;-68
2021/05/11 14:20:54;;;;;;;1.50;0.60;;;17.60;73.30;;;;;;2354865;53;21005;-69
2021/05/11 14:23:20;;;;;;;1.60;0.70;;;17.50;73.30;;;;;;2367010;53;20926;-68
2021/05/11 14:25:46;;;;;;;1.30;0.60;;;17.50;73.50;;;;;;2370787;53;20910;-70
2021/05/11 14:28:13;;;;;;;4.15;0.80;;;17.50;73.60;;;;;;2594862;52;20927;-69
2021/05/11 14:30:39;;;;;;;2.53;0.75;;;17.50;73.60;;;;;;2370856;53;20930;-68
2021/05/11 14:33:05;;;;;;;1.50;0.50;;;17.50;73.60;;;;;;2370933;53;20993;-71
2021/05/11 14:35:32;;;;;;;1.05;0.50;;;17.50;73.80;;;;;;2623358;52;20973;-70
2021/05/11 14:37:58;;;;;;;0.85;0.43;;;17.50;73.80;;;;;;2370654;53;21609;-68
2021/05/11 14:40:25;;;;;;;3.70;2.05;;;17.50;73.90;;;;;;2623358;52;20949;-70
2021/05/11 14:42:53;;;;;;;3.75;1.33;;;17.50;73.90;;;;;;2370755;53;21018;-69
2021/05/11 14:45:22;;;;;;;2.78;1.10;;;17.50;74.00;;;;;;2370990;53;21787;-72
2021/05/11 14:47:49;;;;;;;2.67;0.90;;;17.50;74.20;;;;;;2352177;53;20938;-69
2021/05/11 14:50:16;;;;;;;1.02;0.50;;;17.60;74.50;;;;;;2355588;53;21834;-71
2021/05/11 14:52:43;;;;;;;1.30;0.55;;;17.60;74.60;;;;;;2371045;53;21030;-68
2021/05/11 14:55:10;;;;;;;1.30;0.47;;;17.60;74.90;;;;;;2583252;52;21480;-68
2021/05/11 14:57:37;;;;;;;1.55;0.60;;;17.60;75.50;;;;;;2344627;53;20957;-68
2021/05/11 15:00:05;;;;;;;1.35;0.57;;;17.70;74.50;;;;;;2623274;52;20902;-72
2021/05/11 15:02:33;;;;;;;1.40;0.60;;;17.70;74.30;;;;;;2351107;53;20931;-70
2021/05/11 15:05:00;;;;;;;1.52;0.60;;;17.70;74.20;;;;;;2365629;53;20963;-71
2021/05/11 15:07:27;;;;;;;1.73;0.65;;;17.70;73.90;;;;;;2355038;53;20941;-68
2021/05/11 15:09:53;;;;;;;1.77;0.70;;;17.70;73.10;;;;;;2361148;53;20995;-69
2021/05/11 15:12:19;;;;;;;1.20;0.55;;;17.70;72.80;;;;;;2358867;53;20992;-71
2021/05/11 15:14:46;;;;;;;1.50;0.60;;;17.60;72.60;;;;;;2370919;53;20993;-71
2021/05/11 15:20:40;;;;;;;1.10;0.47;;;17.50;72.90;;;;;;2596549;52;21067;-68
2021/05/11 15:23:07;;;;;;;1.48;0.70;;;17.50;72.80;;;;;;2367460;53;21018;-69
2021/05/11 15:25:33;;;;;;;1.60;0.60;;;17.50;72.90;;;;;;2370526;53;21296;-71
2021/05/11 15:28:00;;;;;;;1.02;0.50;;;17.50;72.90;;;;;;2587144;53;21004;-67
2021/05/11 15:30:30;;;;;;;1.67;0.90;;;17.40;72.80;;;;;;2365202;53;20973;-68
2021/05/11 15:32:56;;;;;;;1.27;0.50;;;17.40;72.70;;;;;;2368831;53;21442;-70
2021/05/11 15:35:24;;;;;;;1.27;0.60;;;17.40;72.80;;;;;;2607380;52;20944;-71
2021/05/11 15:37:53;;;;;;;1.23;0.60;;;17.40;72.90;;;;;;2357674;53;20950;-70
2021/05/11 15:40:20;;;;;;;1.08;0.50;;;17.40;73.00;;;;;;2349927;53;20916;-69
2021/05/11 15:42:47;;;;;;;0.85;0.40;;;17.30;72.80;;;;;;2348992;54;21049;-68
2021/05/11 15:45:13;;;;;;;1.00;0.40;;;17.30;72.90;;;;;;2368574;53;21367;-69
2021/05/11 15:47:52;;;;;;;1.02;0.40;;;17.30;73.10;;;;;;2345827;53;21524;-69
2021/05/11 15:50:29;;;;;;;0.82;0.40;;;17.30;73.30;;;;;;2414850;54;21459;-69
2021/05/11 15:52:56;;;;;;;1.17;0.40;;;17.30;73.20;;;;;;2451815;52;20947;-71
2021/05/11 15:55:23;;;;;;;0.88;0.37;;;17.30;73.50;;;;;;2462633;52;20949;-68
2021/05/11 15:57:51;;;;;;;0.90;0.40;;;17.30;73.40;;;;;;2621205;52;20946;-69
2021/05/11 16:00:17;;;;;;;1.08;0.40;;;17.30;73.40;;;;;;2590021;52;20994;-70
2021/05/11 16:02:44;;;;;;;1.37;0.50;;;17.30;73.30;;;;;;2617606;52;21415;-68
2021/05/11 16:05:14;;;;;;;2.08;0.50;;;17.40;73.30;;;;;;2562484;52;21502;-67
2021/05/11 16:07:40;;;;;;;1.25;0.40;;;17.40;73.10;;;;;;2366141;53;20925;-69
2021/05/11 16:10:08;;;;;;;1.15;0.50;;;17.40;73.10;;;;;;2384860;53;21047;-69
2021/05/11 16:12:35;;;;;;;1.17;0.43;;;17.40;73.10;;;;;;2351880;53;21009;-68
2021/05/11 16:15:01;;;;;;;1.62;0.40;;;17.30;73.00;;;;;;2342486;53;20947;-69
2021/05/11 16:17:28;;;;;;;2.75;0.85;;;17.30;72.90;;;;;;2361742;53;22106;-68
2021/05/11 16:20:00;;;;;;;3.33;1.27;;;17.30;72.80;;;;;;2347364;53;20982;-68
2021/05/11 16:22:26;;;;;;;3.30;1.50;;;17.30;72.80;;;;;;2365374;53;20950;-68
2021/05/11 16:24:54;;;;;;;2.60;1.02;;;17.40;73.00;;;;;;2617746;52;21173;-69
2021/05/11 16:27:20;;;;;;;1.95;0.82;;;17.30;72.90;;;;;;2359792;56;21125;-70
2021/05/11 16:29:47;;;;;;;1.77;0.70;;;17.30;72.90;;;;;;2599549;52;20942;-69
2021/05/11 16:32:13;;;;;;;1.70;0.68;;;17.30;72.90;;;;;;2343021;53;20955;-68
2021/05/11 16:34:40;;;;;;;1.33;0.57;;;17.30;72.90;;;;;;2602418;52;22226;-69
2021/05/11 16:37:07;;;;;;;1.40;0.57;;;17.30;72.90;;;;;;2353745;53;20958;-68
2021/05/11 16:39:34;;;;;;;1.50;0.57;;;17.30;72.80;;;;;;2344576;53;21581;-69
2021/05/11 16:42:01;;;;;;;1.50;0.70;;;17.30;72.80;;;;;;2342454;53;21447;-70
2021/05/11 16:44:27;;;;;;;1.35;0.50;;;17.20;72.70;;;;;;2559531;52;21460;-70
2021/05/11 16:46:53;;;;;;;1.85;0.40;;;17.20;72.80;;;;;;2321330;53;20914;-70
2021/05/11 16:49:20;;;;;;;0.70;0.40;;;17.20;72.90;;;;;;2323791;53;21470;-69
2021/05/11 16:51:47;;;;;;;1.23;0.60;;;17.20;72.80;;;;;;2311336;53;21860;-68
2021/05/11 16:54:15;;;;;;;1.23;0.50;;;17.20;72.90;;;;;;2306796;53;20939;-70
2021/05/11 16:56:41;;;;;;;1.55;0.60;;;17.20;72.90;;;;;;2297590;53;20943;-70
2021/05/11 16:59:08;;;;;;;1.52;0.70;;;17.20;73.20;;;;;;2297021;53;20926;-70
2021/05/11 17:01:35;;;;;;;1.58;0.70;;;17.20;73.30;;;;;;2295468;53;21043;-70
2021/05/11 17:04:02;;;;;;;2.97;0.80;;;17.20;73.30;;;;;;2317825;53;20989;-70
2021/05/11 17:06:30;;;;;;;2.60;0.77;;;17.20;73.40;;;;;;2359786;52;21038;-69
2021/05/11 17:08:57;;;;;;;2.00;0.60;;;17.20;73.40;;;;;;2487462;52;20918;-70
2021/05/11 17:11:23;;;;;;;0.70;0.40;;;17.20;73.40;;;;;;2289959;53;21842;-70